Aérodrome :
LOGIN :

S'inscrire | Disclaimer

   EN    FR    IT 

 










Légende :    VFR   VFR Marginal   IFR   IFR Intensif   IFR Très Intensif
Visi : 
Plafond : 
>= 8 km
>= 3000ft
5 à 8 km
1000 à 3000 ft
1500m à 5 km
500 à 1000 ft
800 à 1500m
200 à 500 ft
< 800m
< 200 ft
Symboles :   Orages  Brouillard  Fortes neiges  Fortes précipitations  Vent > 20 kt
SIGMETs :   Divers  Orages  Givrage  Turbulence  Onde Orograph.  Cendres Volcan.







- Altitude de l'aérodrome : 18 ft
- Code IATA : AJA
- Voir les cartes d'approche


LFKJ - Ajaccio

DERNIER METAR :
  • 251130Z AUTO 24007KT 9999 NSC 13/07 Q1005 TEMPO RA BKN010 BKN020 BKN080

METARs EXPIRÉS :
  • 251100Z AUTO 25006KT CAVOK 13/08 Q1005 TEMPO RA BKN010 BKN020 BKN080
  • 251030Z AUTO 23006KT CAVOK 12/07 Q1005 TEMPO RA BKN010 BKN020 BKN080
  • 251000Z AUTO 22006KT 190V250 CAVOK 12/07 Q1005 NOSIG
  • 250930Z AUTO 27004KT CAVOK 11/07 Q1005 NOSIG
  • 250900Z AUTO VRB03KT CAVOK 11/07 Q1005 NOSIG

TAF TAF LFKJ
Valide du 25 à 09h jusqu'au 26 à 09h UTC


250800Z 2509/2609 06005KT 9999 FEW020 BKN230
TEMPO 2512/2603 24010KT RA BKN010 BKN020 BKN080
ATIS : +33 4 95 23 59 85
Pas de NOTAMs connus pour ce terrain.



MET'MAP, la Météo Aéronautique d'un coup d'oeil ! - Copyright ORBIFLY Décembre 2007 - Disclaimer

ORBIFLY MET'MAP TEAM :

Programmation & Développement : Alexandra Zaïnal
Conception & Développement : Baudouin d'Aumeries
Co-Programmation & Développement : Marc-Olivier Méhu
Soutien technique & logistique : Manuel Goepfert

Contact : metmap@orbifly.com




SOURCES & CREDITS :

   NOAA